createdAt,value
2018-04-10T00:00:03.273Z,83.24
2018-04-10T00:00:07.276Z,83.24
2018-04-10T00:00:11.475Z,83.34
2018-04-10T00:00:15.668Z,83.43
2018-04-10T00:00:19.871Z,83.14
2018-04-10T00:00:24.173Z,83.24
2018-04-10T00:00:28.369Z,83.05
2018-04-10T00:00:32.677Z,83.24
2018-04-10T00:00:36.780Z,83.24
2018-04-10T00:00:40.988Z,83.24
2018-04-10T00:00:44.978Z,83.14
2018-04-10T00:00:49.176Z,83.24
2018-04-10T00:00:53.165Z,83.14
2018-04-10T00:00:57.376Z,82.86
2018-04-10T00:01:01.469Z,83.05
2018-04-10T00:01:05.253Z,82.95
2018-04-10T00:01:09.248Z,82.95
2018-04-10T00:01:13.346Z,83.14
2018-04-10T00:01:17.543Z,83.24
2018-04-10T00:01:21.740Z,83.05
2018-04-10T00:01:25.945Z,83.14
2018-04-10T00:01:29.837Z,82.67
2018-04-10T00:01:34.031Z,83.14
2018-04-10T00:01:38.329Z,83.14
2018-04-10T00:01:42.632Z,82.86
2018-04-10T00:01:46.840Z,82.67
2018-04-10T00:01:51.044Z,82.86
2018-04-10T00:01:55.348Z,83.14
2018-04-10T00:01:59.330Z,83.14
2018-04-10T00:02:03.800Z,83.05
2018-04-10T00:02:07.692Z,83.05
2018-04-10T00:02:11.895Z,83.05
2018-04-10T00:02:16.026Z,83.14
2018-04-10T00:02:20.013Z,83.14
2018-04-10T00:02:24.210Z,83.14
2018-04-10T00:02:28.410Z,83.14
2018-04-10T00:02:32.503Z,83.14
2018-04-10T00:02:36.808Z,83.05
2018-04-10T00:02:40.795Z,83.05
2018-04-10T00:02:44.779Z,83.14
2018-04-10T00:02:48.867Z,82.95
2018-04-10T00:02:52.853Z,82.86
2018-04-10T00:02:57.160Z,83.24
2018-04-10T00:03:01.469Z,82.86
2018-04-10T00:03:05.563Z,83.05
2018-04-10T00:03:09.698Z,83.34
2018-04-10T00:03:13.691Z,82.95
2018-04-10T00:03:17.780Z,82.95
2018-04-10T00:03:21.866Z,83.14
2018-04-10T00:03:25.963Z,83.05
2018-04-10T00:03:30.059Z,83.05
2018-04-10T00:03:34.045Z,82.86
2018-04-10T00:03:38.353Z,82.67
2018-04-10T00:03:42.545Z,83.14
2018-04-10T00:03:46.658Z,83.14
2018-04-10T00:03:50.963Z,83.24
2018-04-10T00:03:55.164Z,82.76
2018-04-10T00:03:59.258Z,83.24
2018-04-10T00:04:03.355Z,82.76
2018-04-10T00:04:07.444Z,82.76
2018-04-10T00:04:11.537Z,82.76
2018-04-10T00:04:15.738Z,82.86
2018-04-10T00:04:19.828Z,83.34
2018-04-10T00:04:24.030Z,82.86
2018-04-10T00:04:28.027Z,83.24
2018-04-10T00:04:32.120Z,83.24
2018-04-10T00:04:36.211Z,83.24
2018-04-10T00:04:40.517Z,83.14
2018-04-10T00:04:44.713Z,82.86
2018-04-10T00:04:48.802Z,83.24
2018-04-10T00:04:53.111Z,82.86
2018-04-10T00:04:57.310Z,82.67
2018-04-10T00:05:01.410Z,83.34
2018-04-10T00:05:05.555Z,82.86
2018-04-10T00:05:09.651Z,82.76
2018-04-10T00:05:13.740Z,83.05
2018-04-10T00:05:17.944Z,83.14
2018-04-10T00:05:22.141Z,83.05
2018-04-10T00:05:26.452Z,83.05
2018-04-10T00:05:30.660Z,82.86
2018-04-10T00:05:34.976Z,82.95
2018-04-10T00:05:39.171Z,83.34
2018-04-10T00:05:43.263Z,83.34
2018-04-10T00:05:47.253Z,83.05
2018-04-10T00:05:51.356Z,82.86
2018-04-10T00:05:55.552Z,82.95
2018-04-10T00:05:59.855Z,83.24
2018-04-10T00:06:03.872Z,83.24
2018-04-10T00:06:07.756Z,83.14
2018-04-10T00:06:11.956Z,83.05
2018-04-10T00:06:16.156Z,83.34
2018-04-10T00:06:20.251Z,83.24
2018-04-10T00:06:24.455Z,83.05
2018-04-10T00:06:28.800Z,83.47
2018-04-10T00:06:32.997Z,83.43
2018-04-10T00:06:37.207Z,83.43
2018-04-10T00:06:41.311Z,83.43
2018-04-10T00:06:45.405Z,83.43
2018-04-10T00:06:49.608Z,83.43
2018-04-10T00:06:53.809Z,83.34
2018-04-10T00:06:57.910Z,83.24
2018-04-10T00:07:02.475Z,83.43
2018-04-10T00:07:06.774Z,83.24
2018-04-10T00:07:11.018Z,83.43
2018-04-10T00:07:15.219Z,83.43
2018-04-10T00:07:19.421Z,83.24
2018-04-10T00:07:23.301Z,83.24
2018-04-10T00:07:27.498Z,83.24
2018-04-10T00:07:31.704Z,83.34
2018-04-10T00:07:35.899Z,83.24
2018-04-10T00:07:40.094Z,83.34
2018-04-10T00:07:44.296Z,83.34
2018-04-10T00:07:48.497Z,83.14
2018-04-10T00:07:52.801Z,83.05
2018-04-10T00:07:57.009Z,83.43
2018-04-10T00:08:01.108Z,83.43
2018-04-10T00:08:05.300Z,83.34
2018-04-10T00:08:09.286Z,83.34
2018-04-10T00:08:13.488Z,83.43
2018-04-10T00:08:17.480Z,83.24
2018-04-10T00:08:21.465Z,83.43
2018-04-10T00:08:25.553Z,83.43
2018-04-10T00:08:29.650Z,83.34
2018-04-10T00:08:33.847Z,83.34
2018-04-10T00:08:37.945Z,83.14
2018-04-10T00:08:42.138Z,83.34
2018-04-10T00:08:46.448Z,83.24
2018-04-10T00:08:50.450Z,83.34
2018-04-10T00:08:54.434Z,83.24
2018-04-10T00:08:58.637Z,83.24
2018-04-10T00:09:02.876Z,82.95
2018-04-10T00:09:07.085Z,83.14
2018-04-10T00:09:11.286Z,83.05
2018-04-10T00:09:15.586Z,82.95
2018-04-10T00:09:19.789Z,82.76
2018-04-10T00:09:23.778Z,82.67
2018-04-10T00:09:27.866Z,82.67
2018-04-10T00:09:31.850Z,83.05
2018-04-10T00:09:36.055Z,82.86
2018-04-10T00:09:40.157Z,82.95
2018-04-10T00:09:44.141Z,82.95
2018-04-10T00:09:48.170Z,82.95
2018-04-10T00:09:52.370Z,82.95
2018-04-10T00:09:56.574Z,82.86
2018-04-10T00:10:00.773Z,82.95
2018-04-10T00:10:05.003Z,82.86
2018-04-10T00:10:08.990Z,82.86
2018-04-10T00:10:13.290Z,82.67
2018-04-10T00:10:17.486Z,82.86
2018-04-10T00:10:21.682Z,82.95
2018-04-10T00:10:25.874Z,82.95
2018-04-10T00:10:29.967Z,82.95
2018-04-10T00:10:33.952Z,82.95
2018-04-10T00:10:38.043Z,82.95
2018-04-10T00:10:42.134Z,82.76
2018-04-10T00:10:46.119Z,82.95
2018-04-10T00:10:50.215Z,82.76
2018-04-10T00:10:54.311Z,82.95
2018-04-10T00:10:58.510Z,82.95
2018-04-10T00:11:02.633Z,82.95
2018-04-10T00:11:06.831Z,82.67
2018-04-10T00:11:10.825Z,82.38
2018-04-10T00:11:15.022Z,82.38
2018-04-10T00:11:19.113Z,82.67
2018-04-10T00:11:23.418Z,82.95
2018-04-10T00:11:27.625Z,82.86
2018-04-10T00:11:31.717Z,82.67
2018-04-10T00:11:35.816Z,82.76
2018-04-10T00:11:39.907Z,82.38
2018-04-10T00:11:44.212Z,82.95
2018-04-10T00:11:48.095Z,82.76
2018-04-10T00:11:52.190Z,82.76
2018-04-10T00:11:56.504Z,82.76
2018-04-10T00:12:00.809Z,82.38
2018-04-10T00:12:04.903Z,82.38
2018-04-10T00:12:09.100Z,82.76
2018-04-10T00:12:13.319Z,82.76
2018-04-10T00:12:17.626Z,82.86
2018-04-10T00:12:21.725Z,82.76
2018-04-10T00:12:25.713Z,82.86
2018-04-10T00:12:29.805Z,82.81
2018-04-10T00:12:33.895Z,82.76
2018-04-10T00:12:37.988Z,82.86
2018-04-10T00:12:42.297Z,82.76
2018-04-10T00:12:46.400Z,82.86
2018-04-10T00:12:50.389Z,82.95
2018-04-10T00:12:54.481Z,82.86
2018-04-10T00:12:58.473Z,82.81
2018-04-10T00:13:02.823Z,82.76
2018-04-10T00:13:07.020Z,82.86
2018-04-10T00:13:11.113Z,82.76
2018-04-10T00:13:15.316Z,82.71
2018-04-10T00:13:19.299Z,82.95
2018-04-10T00:13:23.499Z,82.81
2018-04-10T00:13:27.488Z,82.76
2018-04-10T00:13:31.687Z,82.76
2018-04-10T00:13:35.672Z,82.86
2018-04-10T00:13:39.767Z,82.81
2018-04-10T00:13:43.863Z,82.76
2018-04-10T00:13:48.170Z,82.95
2018-04-10T00:13:52.365Z,82.76
2018-04-10T00:13:56.562Z,82.76
2018-04-10T00:14:00.868Z,82.76
2018-04-10T00:14:05.201Z,82.86
2018-04-10T00:14:09.399Z,82.76
2018-04-10T00:14:13.490Z,82.57
2018-04-10T00:14:17.694Z,82.9
2018-04-10T00:14:21.681Z,82.95
2018-04-10T00:14:25.881Z,83.05
2018-04-10T00:14:29.975Z,82.57
2018-04-10T00:14:34.275Z,82.38
2018-04-10T00:14:38.365Z,82.95
2018-04-10T00:14:42.669Z,82.38
2018-04-10T00:14:46.865Z,82.57
2018-04-10T00:14:50.956Z,82.42
2018-04-10T00:14:55.259Z,82.57
2018-04-10T00:14:59.248Z,82.48
2018-04-10T00:15:03.343Z,82.57
2018-04-10T00:15:07.441Z,82.67
2018-04-10T00:15:11.645Z,82.67
2018-04-10T00:15:15.526Z,82.48
2018-04-10T00:15:19.510Z,82.67
2018-04-10T00:15:23.605Z,82.57
2018-04-10T00:15:27.800Z,82.57
2018-04-10T00:15:31.901Z,82.67
2018-04-10T00:15:35.994Z,82.86
2018-04-10T00:15:39.979Z,82.76
2018-04-10T00:15:44.070Z,82.57
2018-04-10T00:15:47.952Z,82.61
2018-04-10T00:15:52.257Z,82.57
2018-04-10T00:15:56.467Z,82.67
2018-04-10T00:16:00.680Z,82.76
2018-04-10T00:16:04.876Z,82.57
2018-04-10T00:16:09.073Z,82.48
2018-04-10T00:16:13.269Z,82.57
2018-04-10T00:16:17.472Z,82.76
2018-04-10T00:16:21.661Z,82.48
2018-04-10T00:16:25.790Z,82.38
2018-04-10T00:16:29.881Z,82.95
2018-04-10T00:16:34.191Z,82.67
2018-04-10T00:16:37.961Z,82.67
2018-04-10T00:16:42.062Z,82.67
2018-04-10T00:16:46.155Z,82.86
2018-04-10T00:16:50.345Z,82.86
2018-04-10T00:16:54.439Z,82.86
2018-04-10T00:16:58.537Z,82.76
2018-04-10T00:17:02.464Z,82.76
2018-04-10T00:17:06.555Z,82.86
2018-04-10T00:17:10.761Z,82.76
2018-04-10T00:17:15.063Z,82.38
2018-04-10T00:17:19.257Z,82.86
2018-04-10T00:17:23.572Z,82.76
2018-04-10T00:17:27.564Z,82.38
2018-04-10T00:17:31.651Z,82.76
2018-04-10T00:17:35.745Z,82.67
2018-04-10T00:17:40.052Z,82.76
2018-04-10T00:17:44.138Z,82.95
2018-04-10T00:17:48.331Z,82.86
2018-04-10T00:17:52.672Z,82.76
2018-04-10T00:17:56.770Z,82.67
2018-04-10T00:18:00.969Z,82.61
2018-04-10T00:18:05.321Z,82.95
2018-04-10T00:18:09.412Z,82.57
2018-04-10T00:18:13.718Z,82.61
2018-04-10T00:18:17.921Z,82.38
2018-04-10T00:18:22.223Z,82.67
2018-04-10T00:18:26.214Z,82.57
2018-04-10T00:18:30.418Z,82.57
2018-04-10T00:18:34.512Z,82.57
2018-04-10T00:18:38.718Z,82.76
2018-04-10T00:18:42.916Z,82.95
2018-04-10T00:18:47.232Z,82.57
2018-04-10T00:18:51.329Z,82.48
2018-04-10T00:18:55.628Z,82.48
2018-04-10T00:18:59.718Z,82.86
2018-04-10T00:19:03.598Z,82.95
2018-04-10T00:19:07.899Z,82.48
2018-04-10T00:19:12.100Z,82.95
2018-04-10T00:19:16.299Z,82.67
2018-04-10T00:19:20.605Z,82.57
2018-04-10T00:19:24.697Z,82.38
2018-04-10T00:19:28.683Z,82.67
2018-04-10T00:19:32.774Z,82.67
2018-04-10T00:19:36.971Z,82.76
2018-04-10T00:19:41.286Z,82.57
2018-04-10T00:19:45.590Z,82.57
2018-04-10T00:19:49.783Z,82.76
2018-04-10T00:19:53.982Z,82.38
2018-04-10T00:19:58.182Z,82.48
2018-04-10T00:20:02.421Z,82.57
2018-04-10T00:20:06.621Z,82.67
2018-04-10T00:20:10.823Z,82.67
2018-04-10T00:20:14.922Z,82.48
2018-04-10T00:20:19.116Z,82.76
2018-04-10T00:20:23.208Z,82.76
2018-04-10T00:20:27.307Z,82.48
2018-04-10T00:20:31.503Z,82.57
2018-04-10T00:20:35.809Z,82.48
2018-04-10T00:20:39.911Z,82.57
2018-04-10T00:20:44.214Z,82.19
2018-04-10T00:20:48.312Z,82.38
2018-04-10T00:20:52.509Z,82.38
2018-04-10T00:20:56.704Z,82.38
2018-04-10T00:21:00.796Z,82.38
2018-04-10T00:21:04.513Z,82.48
2018-04-10T00:21:08.504Z,82.48
2018-04-10T00:21:12.701Z,82.09
2018-04-10T00:21:17.009Z,82.38
2018-04-10T00:21:21.108Z,82.57
2018-04-10T00:21:25.090Z,82.57
2018-04-10T00:21:29.287Z,82.48
2018-04-10T00:21:33.522Z,82.57
2018-04-10T00:21:37.721Z,82.57
2018-04-10T00:21:42.021Z,82.57
2018-04-10T00:21:46.112Z,82.57
2018-04-10T00:21:50.413Z,82.67
2018-04-10T00:21:54.611Z,82.57
2018-04-10T00:21:58.811Z,82.38
2018-04-10T00:22:03.113Z,82.38
2018-04-10T00:22:07.100Z,82.09
2018-04-10T00:22:11.305Z,82.57
2018-04-10T00:22:15.508Z,82.38
2018-04-10T00:22:19.708Z,82.38
2018-04-10T00:22:23.694Z,82.38
2018-04-10T00:22:27.893Z,82.38
2018-04-10T00:22:31.980Z,82.38
2018-04-10T00:22:36.181Z,82.38
2018-04-10T00:22:40.489Z,82.29
2018-04-10T00:22:44.588Z,82.09
2018-04-10T00:22:48.792Z,82.29
2018-04-10T00:22:52.988Z,82.29
2018-04-10T00:22:57.194Z,82.29
2018-04-10T00:23:01.737Z,82.48
2018-04-10T00:23:05.832Z,82.29
2018-04-10T00:23:09.920Z,81.9
2018-04-10T00:23:14.015Z,82
2018-04-10T00:23:18.224Z,82
2018-04-10T00:23:22.414Z,82
2018-04-10T00:23:26.611Z,82
2018-04-10T00:23:30.809Z,82.09
2018-04-10T00:23:35.004Z,81.9
2018-04-10T00:23:39.308Z,82
2018-04-10T00:23:43.184Z,81.9
2018-04-10T00:23:47.491Z,82.29
2018-04-10T00:23:51.590Z,82.09
2018-04-10T00:23:55.689Z,82.29
2018-04-10T00:23:59.681Z,82.19
2018-04-10T00:24:03.983Z,82.29
2018-04-10T00:24:08.077Z,82.29
2018-04-10T00:24:12.069Z,81.52
2018-04-10T00:24:16.380Z,81.52
2018-04-10T00:24:20.472Z,82.19
2018-04-10T00:24:24.460Z,82.38
2018-04-10T00:24:28.676Z,82.19
2018-04-10T00:24:32.664Z,82.19
2018-04-10T00:24:36.762Z,81.62
2018-04-10T00:24:41.064Z,82.19
2018-04-10T00:24:45.164Z,81.62
2018-04-10T00:24:49.400Z,82
2018-04-10T00:24:53.601Z,82
2018-04-10T00:24:57.904Z,81.62
2018-04-10T00:25:01.996Z,82.19
2018-04-10T00:25:06.199Z,81.66
2018-04-10T00:25:10.395Z,81.81
2018-04-10T00:25:14.598Z,82.19
2018-04-10T00:25:18.795Z,82.29
2018-04-10T00:25:22.991Z,82.29
2018-04-10T00:25:27.294Z,82.29
2018-04-10T00:25:31.419Z,82.29
2018-04-10T00:25:35.510Z,82.29
2018-04-10T00:25:39.705Z,81.62
2018-04-10T00:25:43.799Z,82.19
2018-04-10T00:25:48.108Z,81.81
2018-04-10T00:25:52.093Z,82
2018-04-10T00:25:56.294Z,82
2018-04-10T00:26:00.398Z,82
2018-04-10T00:26:04.642Z,81.62
2018-04-10T00:26:08.523Z,81.66
2018-04-10T00:26:12.722Z,81.85
2018-04-10T00:26:16.819Z,81.52
2018-04-10T00:26:20.914Z,81.62
2018-04-10T00:26:25.005Z,81.43
2018-04-10T00:26:29.232Z,81.24
2018-04-10T00:26:33.324Z,81.43
2018-04-10T00:26:37.523Z,81.14
2018-04-10T00:26:41.507Z,81.52
2018-04-10T00:26:45.598Z,81.33
2018-04-10T00:26:49.914Z,81.52
2018-04-10T00:26:54.113Z,81.56
2018-04-10T00:26:58.209Z,81.43
2018-04-10T00:27:02.304Z,81.43
2018-04-10T00:27:06.506Z,81.71
2018-04-10T00:27:10.279Z,81.66
2018-04-10T00:27:14.471Z,81.66
2018-04-10T00:27:18.666Z,81.52
2018-04-10T00:27:22.969Z,81.56
2018-04-10T00:27:27.162Z,81.52
2018-04-10T00:27:31.253Z,81.43
2018-04-10T00:27:35.341Z,81.66
2018-04-10T00:27:39.431Z,81.62
2018-04-10T00:27:43.763Z,81.66
2018-04-10T00:27:47.721Z,81.62
2018-04-10T00:27:52.032Z,81.62
2018-04-10T00:27:56.338Z,81.62
2018-04-10T00:28:00.533Z,81.52
2018-04-10T00:28:04.732Z,81.71
2018-04-10T00:28:08.829Z,81.43
2018-04-10T00:28:13.130Z,81.76
2018-04-10T00:28:17.326Z,81.71
2018-04-10T00:28:21.549Z,81.52
2018-04-10T00:28:25.647Z,81.71
2018-04-10T00:28:29.852Z,81.9
2018-04-10T00:28:33.847Z,81.9
2018-04-10T00:28:38.154Z,81.81
2018-04-10T00:28:42.359Z,81.43
2018-04-10T00:28:46.353Z,81.33
2018-04-10T00:28:50.346Z,81.52
2018-04-10T00:28:54.442Z,81.47
2018-04-10T00:28:58.764Z,81.47
2018-04-10T00:29:02.642Z,81.52
2018-04-10T00:29:06.734Z,81.56
2018-04-10T00:29:10.720Z,81.56
2018-04-10T00:29:14.817Z,81.71
2018-04-10T00:29:18.806Z,81.76
2018-04-10T00:29:22.899Z,81.37
2018-04-10T00:29:26.893Z,81.71
2018-04-10T00:29:31.091Z,81.76
2018-04-10T00:29:35.285Z,81.71
2018-04-10T00:29:39.382Z,81.66
2018-04-10T00:29:43.591Z,81.62
2018-04-10T00:29:47.791Z,81.76
2018-04-10T00:29:52.102Z,81.66
2018-04-10T00:29:56.403Z,81.66
2018-04-10T00:30:00.640Z,81.71
2018-04-10T00:30:04.932Z,81.43
2018-04-10T00:30:09.041Z,81.76
2018-04-10T00:30:13.356Z,80.9
2018-04-10T00:30:17.554Z,81.71
2018-04-10T00:30:21.543Z,81.62
2018-04-10T00:30:25.857Z,81.66
2018-04-10T00:30:30.057Z,81.56
2018-04-10T00:30:34.153Z,81.37
2018-04-10T00:30:38.376Z,81.56
2018-04-10T00:30:42.471Z,81.37
2018-04-10T00:30:46.669Z,81.62
2018-04-10T00:30:50.876Z,81.47
2018-04-10T00:30:55.074Z,81.52
2018-04-10T00:30:59.288Z,81.52
2018-04-10T00:31:03.634Z,81.62
2018-04-10T00:31:07.849Z,80.85
2018-04-10T00:31:12.150Z,81.66
2018-04-10T00:31:16.248Z,81.56
2018-04-10T00:31:20.457Z,81.62
2018-04-10T00:31:24.661Z,81.52
2018-04-10T00:31:28.751Z,81.52
2018-04-10T00:31:33.055Z,81.56
2018-04-10T00:31:37.148Z,81.52
2018-04-10T00:31:41.139Z,81.47
2018-04-10T00:31:45.338Z,81.52
2018-04-10T00:31:49.321Z,81.66
2018-04-10T00:31:53.518Z,81.76
2018-04-10T00:31:57.613Z,81.52
2018-04-10T00:32:01.957Z,81.37
2018-04-10T00:32:06.049Z,81.56
2018-04-10T00:32:10.146Z,81.56
2018-04-10T00:32:14.137Z,81.56
2018-04-10T00:32:18.444Z,81.47
2018-04-10T00:32:22.645Z,81.56
2018-04-10T00:32:26.635Z,81.47
2018-04-10T00:32:30.625Z,81.56
2018-04-10T00:32:34.861Z,81.43
2018-04-10T00:32:38.954Z,81.47
2018-04-10T00:32:43.148Z,81.56
2018-04-10T00:32:47.133Z,81.56
2018-04-10T00:32:51.434Z,81.47
2018-04-10T00:32:55.630Z,81.47
2018-04-10T00:32:59.937Z,81.47
2018-04-10T00:33:04.333Z,81.37
2018-04-10T00:33:08.421Z,81.95
2018-04-10T00:33:12.634Z,82
2018-04-10T00:33:16.517Z,81.56
2018-04-10T00:33:20.505Z,81.76
2018-04-10T00:33:24.707Z,81.85
2018-04-10T00:33:28.796Z,81.95
2018-04-10T00:33:32.885Z,81.76
2018-04-10T00:33:36.973Z,81.56
2018-04-10T00:33:41.064Z,81.62
2018-04-10T00:33:45.256Z,81.62
2018-04-10T00:33:49.452Z,81.56
2018-04-10T00:33:53.551Z,81.43
2018-04-10T00:33:57.640Z,81.76
2018-04-10T00:34:01.942Z,81.85
2018-04-10T00:34:06.036Z,81.76
2018-04-10T00:34:10.341Z,81.85
2018-04-10T00:34:14.651Z,81.71
2018-04-10T00:34:18.742Z,81.85
2018-04-10T00:34:23.060Z,81.37
2018-04-10T00:34:27.154Z,81.37
2018-04-10T00:34:31.459Z,81.47
2018-04-10T00:34:35.762Z,81.56
2018-04-10T00:34:39.852Z,81.56
2018-04-10T00:34:43.944Z,81.52
2018-04-10T00:34:48.247Z,81.76
2018-04-10T00:34:52.545Z,81.66
2018-04-10T00:34:56.742Z,81.76
2018-04-10T00:35:00.943Z,81.56
2018-04-10T00:35:05.197Z,81.62
2018-04-10T00:35:09.288Z,81.66
2018-04-10T00:35:13.485Z,81.71
2018-04-10T00:35:17.799Z,81.62
2018-04-10T00:35:22.103Z,81.76
2018-04-10T00:35:26.315Z,81.56
2018-04-10T00:35:30.518Z,81.62
2018-04-10T00:35:34.610Z,81.56
2018-04-10T00:35:38.920Z,81.56
2018-04-10T00:35:43.011Z,81.43
2018-04-10T00:35:47.213Z,81.56
2018-04-10T00:35:51.520Z,81.66
2018-04-10T00:35:55.714Z,81.56
2018-04-10T00:36:00.028Z,81.47
2018-04-10T00:36:04.479Z,81.47
2018-04-10T00:36:08.464Z,81.56
2018-04-10T00:36:12.665Z,81.27
2018-04-10T00:36:16.977Z,81.27
2018-04-10T00:36:21.286Z,81.43
2018-04-10T00:36:25.378Z,81.47
2018-04-10T00:36:29.580Z,81.47
2018-04-10T00:36:33.776Z,81.66
2018-04-10T00:36:37.970Z,81.33
2018-04-10T00:36:42.071Z,81.37
2018-04-10T00:36:46.264Z,81.47
2018-04-10T00:36:50.248Z,81.66
2018-04-10T00:36:54.344Z,81.47
2018-04-10T00:36:58.439Z,81.76
2018-04-10T00:37:02.743Z,81.76
2018-04-10T00:37:07.044Z,81.56
2018-04-10T00:37:11.142Z,81.76
2018-04-10T00:37:15.438Z,81.71
2018-04-10T00:37:19.462Z,81.76
2018-04-10T00:37:23.666Z,81.62
2018-04-10T00:37:27.653Z,81.81
2018-04-10T00:37:31.959Z,81.62
2018-04-10T00:37:36.157Z,81.66
2018-04-10T00:37:40.351Z,81.76
2018-04-10T00:37:44.548Z,81.71
2018-04-10T00:37:48.853Z,82.09
2018-04-10T00:37:53.049Z,82.14
2018-04-10T00:37:57.248Z,82.32
2018-04-10T00:38:01.557Z,82.29
2018-04-10T00:38:05.922Z,82.32
2018-04-10T00:38:10.123Z,81.95
2018-04-10T00:38:14.216Z,81.62
2018-04-10T00:38:18.416Z,81.85
2018-04-10T00:38:22.508Z,81.85
2018-04-10T00:38:26.706Z,81.62
2018-04-10T00:38:30.804Z,81.62
2018-04-10T00:38:34.896Z,82.32
2018-04-10T00:38:38.884Z,82.32
2018-04-10T00:38:43.191Z,81.56
2018-04-10T00:38:47.387Z,82.42
2018-04-10T00:38:51.477Z,82.23
2018-04-10T00:38:55.780Z,82.38
2018-04-10T00:38:59.980Z,82.38
2018-04-10T00:39:04.069Z,82.32
2018-04-10T00:39:08.167Z,82.29
2018-04-10T00:39:12.470Z,82.32
2018-04-10T00:39:16.672Z,82.29
2018-04-10T00:39:20.665Z,82.32
2018-04-10T00:39:24.764Z,82.14
2018-04-10T00:39:28.649Z,82.09
2018-04-10T00:39:32.953Z,82
2018-04-10T00:39:37.155Z,82.09
2018-04-10T00:39:41.252Z,82.09
2018-04-10T00:39:45.560Z,82.09
2018-04-10T00:39:49.860Z,82.14
2018-04-10T00:39:53.844Z,82
2018-04-10T00:39:58.053Z,82.09
2018-04-10T00:40:02.367Z,82.29
2018-04-10T00:40:06.568Z,82
2018-04-10T00:40:10.763Z,82.29
2018-04-10T00:40:14.851Z,82.29
2018-04-10T00:40:19.154Z,81.9
2018-04-10T00:40:23.459Z,82.29
2018-04-10T00:40:27.587Z,82
2018-04-10T00:40:31.897Z,82.09
2018-04-10T00:40:36.200Z,82.29
2018-04-10T00:40:40.399Z,82.19
2018-04-10T00:40:44.709Z,82.19
2018-04-10T00:40:48.805Z,82.38
2018-04-10T00:40:52.892Z,82.38
2018-04-10T00:40:56.772Z,82.38
2018-04-10T00:41:00.967Z,82.38
2018-04-10T00:41:05.046Z,82.67
2018-04-10T00:41:09.032Z,82.38
2018-04-10T00:41:13.135Z,82.38
2018-04-10T00:41:17.439Z,82.67
2018-04-10T00:41:21.431Z,82.38
2018-04-10T00:41:25.417Z,82.76
2018-04-10T00:41:29.618Z,82.67
2018-04-10T00:41:33.816Z,82.57
2018-04-10T00:41:37.915Z,82.57
2018-04-10T00:41:42.007Z,82.76
2018-04-10T00:41:46.312Z,82.57
2018-04-10T00:41:50.650Z,82.38
2018-04-10T00:41:54.737Z,82.57
2018-04-10T00:41:58.833Z,82.57
2018-04-10T00:42:03.150Z,82.48
2018-04-10T00:42:07.242Z,82.48
2018-04-10T00:42:11.227Z,82.38
2018-04-10T00:42:15.108Z,82.38
2018-04-10T00:42:19.312Z,82.57
2018-04-10T00:42:23.511Z,82.57
2018-04-10T00:42:27.605Z,82.48
2018-04-10T00:42:31.594Z,82.48
2018-04-10T00:42:35.899Z,82.76
2018-04-10T00:42:39.989Z,82.67
2018-04-10T00:42:43.866Z,82.57
2018-04-10T00:42:48.175Z,82.57
2018-04-10T00:42:52.165Z,82.76
2018-04-10T00:42:56.476Z,82.57
2018-04-10T00:43:00.781Z,82.57
2018-04-10T00:43:04.787Z,82.48
2018-04-10T00:43:08.979Z,82.38
2018-04-10T00:43:12.860Z,82.48
2018-04-10T00:43:16.848Z,82.29
2018-04-10T00:43:20.840Z,82.38
2018-04-10T00:43:24.970Z,82.76
2018-04-10T00:43:29.169Z,82.95
2018-04-10T00:43:33.371Z,82.57
2018-04-10T00:43:37.469Z,82.57
2018-04-10T00:43:41.775Z,82.57
2018-04-10T00:43:45.967Z,82.95
2018-04-10T00:43:50.160Z,82.67
2018-04-10T00:43:54.357Z,82.67
2018-04-10T00:43:58.670Z,82.76
2018-04-10T00:44:02.769Z,82.67
2018-04-10T00:44:07.079Z,82.67
2018-04-10T00:44:11.273Z,82.86
2018-04-10T00:44:15.364Z,82.76
2018-04-10T00:44:19.562Z,82.76
2018-04-10T00:44:23.762Z,82.95
2018-04-10T00:44:27.964Z,82.76
2018-04-10T00:44:32.272Z,82.76
2018-04-10T00:44:36.364Z,82.67
2018-04-10T00:44:40.563Z,82.76
2018-04-10T00:44:44.761Z,82.76
2018-04-10T00:44:48.857Z,82.67
2018-04-10T00:44:53.057Z,82.57
2018-04-10T00:44:57.148Z,82.76
2018-04-10T00:45:01.354Z,82.95
2018-04-10T00:45:05.660Z,82.76
2018-04-10T00:45:09.859Z,82.86
2018-04-10T00:45:14.059Z,82.67
2018-04-10T00:45:18.160Z,82.95
2018-04-10T00:45:22.249Z,82.95
2018-04-10T00:45:26.129Z,82.95
2018-04-10T00:45:30.220Z,82.76
2018-04-10T00:45:34.412Z,83.05
2018-04-10T00:45:38.721Z,82.95
2018-04-10T00:45:42.917Z,83.05
2018-04-10T00:45:47.011Z,83.05
2018-04-10T00:45:51.102Z,83.05
2018-04-10T00:45:55.191Z,82.95
2018-04-10T00:45:59.283Z,83.05
2018-04-10T00:46:03.485Z,83.05
2018-04-10T00:46:07.475Z,82.95
2018-04-10T00:46:11.470Z,83.14
2018-04-10T00:46:15.559Z,83.34
2018-04-10T00:46:19.878Z,83.24
2018-04-10T00:46:24.186Z,83.43
2018-04-10T00:46:28.198Z,83.34
2018-04-10T00:46:32.297Z,83.43
2018-04-10T00:46:36.497Z,83.34
2018-04-10T00:46:40.597Z,83.05
2018-04-10T00:46:44.687Z,82.86
2018-04-10T00:46:48.782Z,82.86
2018-04-10T00:46:52.871Z,82.95
2018-04-10T00:46:56.965Z,83.14
2018-04-10T00:47:01.056Z,83.14
2018-04-10T00:47:05.348Z,82.67
2018-04-10T00:47:09.656Z,83.24
2018-04-10T00:47:13.855Z,83.24
2018-04-10T00:47:17.949Z,83.24
2018-04-10T00:47:22.156Z,83.05
2018-04-10T00:47:26.246Z,83.24
2018-04-10T00:47:30.333Z,83.24
2018-04-10T00:47:34.421Z,83.24
2018-04-10T00:47:38.622Z,83.24
2018-04-10T00:47:42.604Z,83.43
2018-04-10T00:47:46.806Z,83.43
2018-04-10T00:47:51.009Z,83.43
2018-04-10T00:47:54.992Z,83.53
2018-04-10T00:47:59.079Z,83.24
2018-04-10T00:48:03.385Z,83.34
2018-04-10T00:48:07.377Z,83.72
2018-04-10T00:48:11.577Z,83.43
2018-04-10T00:48:15.777Z,83.53
2018-04-10T00:48:20.079Z,83.34
2018-04-10T00:48:24.176Z,83.91
2018-04-10T00:48:28.483Z,83.62
2018-04-10T00:48:32.721Z,83.91
2018-04-10T00:48:37.047Z,83.62
2018-04-10T00:48:41.143Z,83.72
2018-04-10T00:48:45.449Z,84
2018-04-10T00:48:49.541Z,83.72
2018-04-10T00:48:53.747Z,84
2018-04-10T00:48:57.946Z,84
2018-04-10T00:49:02.196Z,83.72
2018-04-10T00:49:06.287Z,84.1
2018-04-10T00:49:10.379Z,84.1
2018-04-10T00:49:14.577Z,84.29
2018-04-10T00:49:18.776Z,84.1
2018-04-10T00:49:22.876Z,84.1
2018-04-10T00:49:27.085Z,84.2
2018-04-10T00:49:31.177Z,84
2018-04-10T00:49:35.371Z,84.39
2018-04-10T00:49:39.684Z,83.91
2018-04-10T00:49:43.900Z,84.1
2018-04-10T00:49:47.996Z,83.91
2018-04-10T00:49:52.341Z,83.91
2018-04-10T00:49:56.642Z,84.2
2018-04-10T00:50:00.847Z,84.29
2018-04-10T00:50:04.728Z,84.29
2018-04-10T00:50:08.721Z,84
2018-04-10T00:50:12.915Z,84
2018-04-10T00:50:17.221Z,84
2018-04-10T00:50:21.110Z,84.1
2018-04-10T00:50:25.241Z,84.29
2018-04-10T00:50:29.437Z,84.48
2018-04-10T00:50:33.526Z,84.29
2018-04-10T00:50:37.732Z,84.29
2018-04-10T00:50:41.823Z,84.58
2018-04-10T00:50:46.023Z,84.67
2018-04-10T00:50:50.225Z,84.77
2018-04-10T00:50:54.433Z,84.67
2018-04-10T00:50:58.533Z,84.58
2018-04-10T00:51:02.626Z,84.48
2018-04-10T00:51:06.824Z,84.58
2018-04-10T00:51:10.916Z,84.39
2018-04-10T00:51:15.221Z,84.86
2018-04-10T00:51:19.417Z,84.86
2018-04-10T00:51:23.615Z,85.05
2018-04-10T00:51:27.598Z,84.67
2018-04-10T00:51:31.793Z,84.67
2018-04-10T00:51:35.888Z,84.48
2018-04-10T00:51:39.979Z,84.58
2018-04-10T00:51:43.973Z,84.67
2018-04-10T00:51:47.960Z,84.77
2018-04-10T00:51:52.155Z,84.77
2018-04-10T00:51:56.455Z,84.77
2018-04-10T00:52:00.653Z,85.05
2018-04-10T00:52:04.533Z,85.25
2018-04-10T00:52:08.523Z,84.67
2018-04-10T00:52:12.612Z,84.67
2018-04-10T00:52:16.708Z,84.67
2018-04-10T00:52:20.805Z,84.77
2018-04-10T00:52:24.995Z,84.96
2018-04-10T00:52:29.191Z,84.44
2018-04-10T00:52:33.175Z,84.67
2018-04-10T00:52:37.373Z,85.34
2018-04-10T00:52:41.469Z,84.67
2018-04-10T00:52:45.673Z,85.25
2018-04-10T00:52:49.973Z,85.53
2018-04-10T00:52:54.283Z,85.44
2018-04-10T00:52:58.479Z,85.25
2018-04-10T00:53:03.095Z,85.53
2018-04-10T00:53:07.190Z,85.63
2018-04-10T00:53:11.386Z,85.44
2018-04-10T00:53:15.371Z,85.44
2018-04-10T00:53:19.352Z,85.53
2018-04-10T00:53:23.545Z,85.44
2018-04-10T00:53:27.741Z,85.05
2018-04-10T00:53:31.835Z,85.25
2018-04-10T00:53:35.937Z,85.44
2018-04-10T00:53:40.026Z,85.53
2018-04-10T00:53:44.220Z,85.44